Terminal Aerodrome Forecast
Issued by NWS

Home | Current Version | Previous Version | Text Only | Print | Product List | Glossary On
Versions: 1 2 3 4 5 6 7 8 9 10 11 12 13 14 15 16
810
FTUS42 KTBW 041306 AAA
TAFPIE
TAF AMD
KPIE 041306Z 0413/0512 32008KT 5SM RA VCTS SCT025 BKN050CB
     FM041700 28012G18KT P6SM VCSH SCT015 BKN020 OVC035
     FM042000 30013G20KT P6SM VCSH BKN020
     FM050000 28009KT P6SM SCT025 BKN070=

USA.gov is the U.S. government's official web portal to all federal, state and local government web resources and services.